createdAt,value
2023-03-02T13:06:53.243Z,37.90
2023-03-02T13:09:20.637Z,34.91
2023-03-02T13:11:47.947Z,36.04
2023-03-02T13:14:19.831Z,36.87
2023-03-02T13:16:54.340Z,37.82
2023-03-02T13:19:21.552Z,37.32
2023-03-02T13:21:48.756Z,38.12
2023-03-02T13:24:45.003Z,37.42
2023-03-02T13:27:15.789Z,37.28
2023-03-02T13:29:43.042Z,37.23
2023-03-02T13:32:17.859Z,37.51
2023-03-02T13:34:49.201Z,36.92
2023-03-02T13:37:22.250Z,36.82
2023-03-02T13:39:57.545Z,36.76
2023-03-02T13:42:26.640Z,36.39
2023-03-02T13:44:54.059Z,37.11
2023-03-02T13:47:22.450Z,36.70
2023-03-02T13:49:49.638Z,35.93
2023-03-02T13:52:19.773Z,36.28
2023-03-02T13:54:46.976Z,36.24
2023-03-02T13:57:16.515Z,36.79
2023-03-02T13:59:43.667Z,37.39
2023-03-02T14:02:21.425Z,36.48
2023-03-02T14:04:48.785Z,37.06
2023-03-02T14:07:16.013Z,37.90
2023-03-02T14:09:43.243Z,36.80
2023-03-02T14:12:12.002Z,36.07
2023-03-02T14:14:40.700Z,36.67
2023-03-02T14:17:11.412Z,36.45
2023-03-02T14:19:38.579Z,37.12
2023-03-02T14:22:05.698Z,36.09
2023-03-02T14:24:32.891Z,36.38
2023-03-02T14:27:00.047Z,36.50
2023-03-02T14:29:28.062Z,36.62
2023-03-02T14:31:58.206Z,36.51
2023-03-02T14:34:25.441Z,36.63
2023-03-02T14:36:54.312Z,35.93
2023-03-02T14:39:22.220Z,36.35
2023-03-02T14:41:53.792Z,35.28
2023-03-02T14:44:22.084Z,36.09
2023-03-02T14:46:49.518Z,36.05
2023-03-02T14:49:18.314Z,35.72
2023-03-02T14:51:47.161Z,36.26
2023-03-02T14:54:15.145Z,35.90
2023-03-02T14:56:42.403Z,36.19
2023-03-02T14:59:09.781Z,35.99
2023-03-02T15:01:36.967Z,35.23
2023-03-02T15:04:04.329Z,35.31
2023-03-02T15:06:34.743Z,34.41
2023-03-02T15:09:02.447Z,34.70
2023-03-02T15:11:29.594Z,35.22
2023-03-02T15:13:56.903Z,34.01
2023-03-02T15:16:24.204Z,36.05
2023-03-02T15:18:51.598Z,35.68
2023-03-02T15:21:19.420Z,36.30
2023-03-02T15:23:48.068Z,37.50
2023-03-02T15:26:15.485Z,37.29
2023-03-02T15:28:42.813Z,38.11
2023-03-02T15:31:10.662Z,36.99
2023-03-02T15:33:37.873Z,38.20
2023-03-02T15:36:05.738Z,37.05
2023-03-02T15:38:32.967Z,37.42
2023-03-02T15:41:05.477Z,39.00
2023-03-02T15:43:32.841Z,37.47
2023-03-02T15:46:00.117Z,37.92
2023-03-02T15:48:27.609Z,38.72
2023-03-02T15:50:58.379Z,38.40
2023-03-02T15:53:25.750Z,38.56
2023-03-02T15:55:52.988Z,39.19
2023-03-02T15:58:21.702Z,38.66
2023-03-02T16:00:49.008Z,38.19
2023-03-02T16:03:16.316Z,37.56
2023-03-02T16:05:43.538Z,37.78
2023-03-02T16:08:10.756Z,38.54
2023-03-02T16:10:38.016Z,38.91
2023-03-02T16:13:06.001Z,38.53
2023-03-02T16:15:38.620Z,38.33
2023-03-02T16:18:05.948Z,39.36
2023-03-02T16:20:34.723Z,38.30
2023-03-02T16:23:01.906Z,39.68
2023-03-02T16:25:29.232Z,38.67
2023-03-02T16:27:56.552Z,38.05
2023-03-02T16:30:23.879Z,39.39
2023-03-02T16:32:52.721Z,39.49
2023-03-02T16:35:19.934Z,38.88
2023-03-02T16:37:47.161Z,38.02
2023-03-02T16:40:14.437Z,37.93
2023-03-02T16:42:41.740Z,38.86
2023-03-02T16:45:09.943Z,37.59
2023-03-02T16:47:37.225Z,38.02
2023-03-02T16:50:07.061Z,38.49
2023-03-02T16:52:34.320Z,38.60
2023-03-02T16:55:01.601Z,38.28
2023-03-02T16:57:28.843Z,39.02
2023-03-02T16:59:56.075Z,38.15
2023-03-02T17:02:23.200Z,39.06
2023-03-02T17:04:50.451Z,40.08
2023-03-02T17:07:19.211Z,39.48
2023-03-02T17:09:46.689Z,39.26
2023-03-02T17:12:13.908Z,39.72
2023-03-02T17:14:44.634Z,40.14
2023-03-02T17:17:13.744Z,39.52
2023-03-02T17:19:41.074Z,39.52
2023-03-02T17:22:08.332Z,40.50
2023-03-02T17:24:36.888Z,39.69
2023-03-02T17:27:05.425Z,40.70
2023-03-02T17:29:35.971Z,39.50
2023-03-02T17:32:03.248Z,41.65
2023-03-02T17:34:30.564Z,41.29
2023-03-02T17:36:57.819Z,40.99
2023-03-02T17:39:25.086Z,40.12
2023-03-02T17:41:53.852Z,40.88
2023-03-02T17:44:21.088Z,40.15
2023-03-02T17:46:48.368Z,40.58
2023-03-02T17:49:15.495Z,41.51
2023-03-02T17:51:42.737Z,41.05
2023-03-02T17:54:09.956Z,42.14
2023-03-02T17:56:37.229Z,41.88
2023-03-02T17:59:05.915Z,42.59
2023-03-02T18:01:33.388Z,43.01
2023-03-02T18:04:01.120Z,43.79
2023-03-02T18:06:28.477Z,44.72
2023-03-02T18:08:55.803Z,44.88
2023-03-02T18:11:23.271Z,44.37
2023-03-02T18:13:50.557Z,43.37
2023-03-02T18:16:19.346Z,43.62
2023-03-02T18:18:46.587Z,44.01
2023-03-02T18:21:13.746Z,43.86
2023-03-02T18:23:41.020Z,43.76
2023-03-02T18:26:08.322Z,43.28
2023-03-02T18:28:35.573Z,45.10
2023-03-02T18:31:02.916Z,45.26
2023-03-02T18:33:31.507Z,45.92
2023-03-02T18:35:58.724Z,44.04
2023-03-02T18:38:25.943Z,43.16
2023-03-02T18:40:53.219Z,41.48
2023-03-02T18:43:20.428Z,39.30
2023-03-02T18:45:47.724Z,39.78
2023-03-02T18:48:15.035Z,39.34
2023-03-02T18:50:43.703Z,39.87
2023-03-02T18:53:12.845Z,41.08
2023-03-02T18:55:40.297Z,41.30
2023-03-02T18:58:07.672Z,42.39
2023-03-02T19:00:35.055Z,41.41
2023-03-02T19:03:02.270Z,42.28
2023-03-02T19:05:29.618Z,41.29
2023-03-02T19:07:58.143Z,41.75
2023-03-02T19:10:25.432Z,41.93
2023-03-02T19:12:52.602Z,42.07
2023-03-02T19:15:19.997Z,42.16
2023-03-02T19:17:48.577Z,41.58
2023-03-02T19:20:18.118Z,42.13
2023-03-02T19:22:45.378Z,40.77
2023-03-02T19:25:14.168Z,40.67
2023-03-02T19:27:41.238Z,42.16
2023-03-02T19:30:09.762Z,41.95
2023-03-02T19:32:37.729Z,41.96
2023-03-02T19:35:05.770Z,42.15
2023-03-02T19:37:32.997Z,42.85
2023-03-02T19:40:01.601Z,44.35
2023-03-02T19:42:30.256Z,42.27
2023-03-02T19:44:58.049Z,41.39
2023-03-02T19:47:25.395Z,41.84
2023-03-02T19:49:52.789Z,41.66
2023-03-02T19:52:19.973Z,41.40
2023-03-02T19:54:47.129Z,41.73
2023-03-02T19:57:14.370Z,41.59
2023-03-02T19:59:43.006Z,41.76
2023-03-02T20:02:10.369Z,41.57
2023-03-02T20:04:37.567Z,42.15
2023-03-02T20:07:04.880Z,43.13
2023-03-02T20:09:32.536Z,41.50
2023-03-02T20:11:59.701Z,42.84
